Time;durP1;ratioP1;P1;durP2;ratioP2;P2;SDS_P1;SDS_P2;PMS_P1;PMS_P2;Temp;Humidity;BMP_temperature;BMP_pressure;BME280_temperature;BME280_humidity;BME280_pressure;Samples;Min_cycle;Max_cycle;Signal;HPM_P1;HPM_P2
2023/06/24 00:02:26;;;;;;;1.33;0.82;;;13.10;64.90;;;;;;6276443;22;20014;-68
2023/06/24 00:04:54;;;;;;;0.95;0.77;;;13.10;64.80;;;;;;6276825;22;19999;-68
2023/06/24 00:07:22;;;;;;;0.93;0.75;;;13.10;64.60;;;;;;6302857;22;20006;-64
2023/06/24 00:09:49;;;;;;;3.03;0.90;;;13.20;64.60;;;;;;6304078;22;20010;-69
2023/06/24 00:12:18;;;;;;;1.15;0.80;;;13.20;64.60;;;;;;6277583;22;20004;-68
2023/06/24 00:14:47;;;;;;;2.50;0.80;;;13.20;64.40;;;;;;6305275;22;19996;-69
2023/06/24 00:17:16;;;;;;;3.25;0.70;;;13.30;64.40;;;;;;6277654;22;20019;-69
2023/06/24 00:19:46;;;;;;;0.98;0.70;;;13.30;64.00;;;;;;6304949;22;20061;-69
2023/06/24 00:22:13;;;;;;;1.75;0.70;;;13.30;63.70;;;;;;6302120;22;20015;-71
2023/06/24 00:24:42;;;;;;;0.93;0.80;;;13.30;64.00;;;;;;6305198;22;19995;-69
2023/06/24 00:27:10;;;;;;;4.18;0.70;;;13.30;63.80;;;;;;6279387;22;20031;-69
2023/06/24 00:29:37;;;;;;;1.05;0.60;;;13.30;63.40;;;;;;6305166;22;20004;-69
2023/06/24 00:32:05;;;;;;;1.02;0.80;;;13.40;63.50;;;;;;6277872;22;20007;-69
2023/06/24 00:34:32;;;;;;;0.73;0.65;;;13.40;63.10;;;;;;6278543;22;20247;-69
2023/06/24 00:37:02;;;;;;;2.78;1.35;;;13.40;63.10;;;;;;6253243;22;20019;-69
2023/06/24 00:39:29;;;;;;;1.15;0.68;;;13.40;63.10;;;;;;6305630;22;20418;-71
2023/06/24 00:41:56;;;;;;;1.58;0.70;;;13.40;62.60;;;;;;6305993;22;20030;-70
2023/06/24 00:44:23;;;;;;;1.77;0.90;;;13.40;62.50;;;;;;6278354;22;20003;-70
2023/06/24 00:46:50;;;;;;;1.00;0.65;;;13.50;62.20;;;;;;6253533;22;20011;-70
2023/06/24 00:49:18;;;;;;;0.63;0.60;;;13.50;62.40;;;;;;6305070;22;20011;-70
2023/06/24 00:51:50;;;;;;;1.85;0.75;;;13.50;62.30;;;;;;6278753;22;20453;-70
2023/06/24 00:54:18;;;;;;;2.13;0.90;;;13.60;61.60;;;;;;6305987;22;20363;-70
2023/06/24 00:56:45;;;;;;;1.20;0.65;;;13.60;61.30;;;;;;6253034;22;20022;-70
2023/06/24 00:59:15;;;;;;;1.27;0.68;;;13.70;60.40;;;;;;6254513;22;20322;-70
2023/06/24 01:01:44;;;;;;;1.43;0.50;;;13.70;59.80;;;;;;6281022;22;20429;-70
2023/06/24 01:04:11;;;;;;;1.10;0.60;;;13.70;59.00;;;;;;6280689;22;20078;-70
2023/06/24 01:06:43;;;;;;;2.15;0.70;;;13.70;58.80;;;;;;6307342;22;20018;-70
2023/06/24 03:22:02;;;;;;;1.48;0.70;;;15.00;54.10;;;;;;6272848;22;20024;-68
2023/06/24 03:24:29;;;;;;;2.30;0.80;;;15.10;54.00;;;;;;6273752;22;20061;-68
2023/06/24 03:26:57;;;;;;;1.08;0.60;;;15.20;54.30;;;;;;6273160;22;20378;-68
2023/06/24 03:29:24;;;;;;;1.52;0.90;;;15.20;53.60;;;;;;6273535;22;20000;-68
2023/06/24 03:31:51;;;;;;;1.60;0.52;;;15.20;53.70;;;;;;6274130;22;19999;-69
2023/06/24 03:34:18;;;;;;;0.93;0.60;;;15.20;53.50;;;;;;6272754;22;20007;-68
2023/06/24 03:36:46;;;;;;;2.35;0.57;;;15.20;53.70;;;;;;6273636;22;20062;-68
2023/06/24 03:39:13;;;;;;;3.38;1.00;;;15.20;53.90;;;;;;6274563;22;20000;-68
2023/06/24 03:41:40;;;;;;;0.65;0.50;;;15.20;53.50;;;;;;6273432;22;20083;-68
2023/06/24 03:44:07;;;;;;;0.75;0.65;;;15.30;53.70;;;;;;6273181;22;20457;-68
2023/06/24 03:46:35;;;;;;;1.33;0.50;;;15.30;53.50;;;;;;6272653;22;20410;-67
2023/06/24 03:49:02;;;;;;;0.75;0.52;;;15.30;53.60;;;;;;6274051;22;20026;-68
2023/06/24 03:51:29;;;;;;;1.20;0.60;;;15.30;53.20;;;;;;6272812;22;20011;-67
2023/06/24 03:53:56;;;;;;;1.08;0.60;;;15.30;52.80;;;;;;6272235;22;20008;-66
2023/06/24 03:56:24;;;;;;;2.55;0.50;;;15.30;52.60;;;;;;6270164;22;20015;-66
2023/06/24 03:58:51;;;;;;;2.30;0.80;;;15.40;52.50;;;;;;6269625;22;20057;-66
2023/06/24 04:01:19;;;;;;;1.13;0.60;;;15.40;52.70;;;;;;6271658;22;20026;-67
2023/06/24 04:03:47;;;;;;;0.73;0.60;;;15.40;52.50;;;;;;6268541;22;20086;-67
2023/06/24 04:06:14;;;;;;;0.50;0.40;;;15.50;52.30;;;;;;6270112;22;20065;-67
2023/06/24 04:08:43;;;;;;;0.50;0.50;;;15.50;51.80;;;;;;6271272;22;20008;-67
2023/06/24 04:11:11;;;;;;;0.73;0.50;;;15.50;52.60;;;;;;6271103;22;20004;-67
2023/06/24 04:13:38;;;;;;;0.60;0.57;;;15.50;52.00;;;;;;6271900;22;20051;-66
2023/06/24 04:16:06;;;;;;;1.00;0.50;;;15.50;51.60;;;;;;6271012;22;20336;-66
2023/06/24 04:18:33;;;;;;;1.42;0.60;;;15.50;51.40;;;;;;6271132;22;20000;-66
2023/06/24 04:21:00;;;;;;;1.88;0.60;;;15.50;51.00;;;;;;6277488;22;20034;-67
2023/06/24 04:23:27;;;;;;;0.88;0.60;;;15.60;51.20;;;;;;6302649;22;20004;-67
2023/06/24 04:25:55;;;;;;;1.52;0.80;;;15.60;51.80;;;;;;6301976;22;20074;-67
2023/06/24 04:28:22;;;;;;;1.13;0.70;;;15.60;52.40;;;;;;6302420;22;20465;-66
2023/06/24 04:30:49;;;;;;;1.23;0.75;;;15.60;52.90;;;;;;6301782;22;20026;-66
2023/06/24 04:33:16;;;;;;;0.98;0.68;;;15.70;52.90;;;;;;6304155;22;20008;-66
2023/06/24 04:35:44;;;;;;;2.22;1.10;;;15.70;52.90;;;;;;6305460;22;20134;-66
2023/06/24 04:38:11;;;;;;;1.48;0.80;;;15.70;53.20;;;;;;6304129;22;20022;-66
2023/06/24 04:40:38;;;;;;;0.85;0.73;;;15.70;53.50;;;;;;6252128;22;20011;-65
2023/06/24 04:43:06;;;;;;;2.53;0.80;;;15.70;52.80;;;;;;6303521;22;20345;-65
2023/06/24 04:45:34;;;;;;;1.88;0.88;;;15.70;52.90;;;;;;6303773;22;20086;-65
2023/06/24 04:48:01;;;;;;;1.60;0.88;;;15.70;52.90;;;;;;6304463;22;20034;-65
2023/06/24 07:59:57;;;;;;;5.68;2.10;;;14.80;55.90;;;;;;6267423;22;20234;-68
2023/06/24 08:02:27;;;;;;;3.67;2.10;;;14.70;55.20;;;;;;6267035;22;20008;-69
2023/06/24 08:04:54;;;;;;;3.90;2.30;;;14.70;54.70;;;;;;6269110;22;20075;-69
2023/06/24 08:07:21;;;;;;;3.10;2.03;;;14.70;54.60;;;;;;6271371;22;20442;-68
2023/06/24 08:09:49;;;;;;;4.55;2.00;;;14.80;54.30;;;;;;6270888;22;20546;-68
2023/06/24 08:12:16;;;;;;;3.92;2.00;;;14.80;54.00;;;;;;6268338;22;20773;-68
2023/06/24 08:14:43;;;;;;;3.75;2.20;;;14.80;53.90;;;;;;6268583;22;20434;-69
2023/06/24 08:17:10;;;;;;;35.78;22.38;;;14.80;53.60;;;;;;6266903;22;20195;-69
2023/06/24 08:19:37;;;;;;;13.77;8.23;;;14.70;53.70;;;;;;6268114;22;20003;-69
2023/06/24 08:22:05;;;;;;;17.23;10.05;;;14.80;53.60;;;;;;6267823;22;20472;-68
2023/06/24 08:24:32;;;;;;;4.25;2.88;;;14.80;53.50;;;;;;6266123;22;20105;-69
2023/06/24 08:26:59;;;;;;;2.90;2.15;;;14.70;53.30;;;;;;6266803;22;20034;-66
2023/06/24 08:29:27;;;;;;;3.10;2.25;;;14.70;53.20;;;;;;6272179;22;20319;-68
2023/06/24 08:31:54;;;;;;;2.90;2.33;;;14.70;53.10;;;;;;6271105;22;20008;-68
2023/06/24 08:34:21;;;;;;;4.93;2.53;;;14.70;52.90;;;;;;6271230;22;20031;-67
2023/06/24 08:36:48;;;;;;;4.97;3.30;;;14.70;52.70;;;;;;6273131;22;20015;-69
2023/06/24 08:39:16;;;;;;;5.00;3.10;;;14.70;52.70;;;;;;6272721;22;20435;-68
2023/06/24 08:41:43;;;;;;;6.13;3.20;;;14.60;53.20;;;;;;6272679;22;20007;-68
2023/06/24 08:44:10;;;;;;;6.22;3.40;;;14.60;52.90;;;;;;6272994;22;20014;-68
2023/06/24 08:46:37;;;;;;;4.78;3.30;;;14.60;52.80;;;;;;6273226;22;20038;-68
2023/06/24 08:49:29;;;;;;;5.50;2.97;;;14.60;52.70;;;;;;6220970;22;20008;-67
2023/06/24 08:52:11;;;;;;;5.78;3.03;;;14.60;52.50;;;;;;6224897;22;20342;-66
2023/06/24 08:54:40;;;;;;;6.47;3.47;;;14.50;52.80;;;;;;6246864;22;20014;-65
2023/06/24 08:57:10;;;;;;;5.05;3.35;;;14.50;52.70;;;;;;6272703;22;20016;-65
2023/06/24 08:59:38;;;;;;;5.32;3.92;;;14.40;52.70;;;;;;6298920;22;20464;-65
2023/06/24 09:02:05;;;;;;;5.70;3.60;;;14.40;52.80;;;;;;6274199;22;20364;-67
2023/06/24 09:04:32;;;;;;;5.63;3.50;;;14.40;52.90;;;;;;6301478;22;20010;-65
2023/06/24 09:07:00;;;;;;;5.13;3.72;;;14.30;53.20;;;;;;6302615;22;20148;-63
2023/06/24 09:09:28;;;;;;;4.68;2.42;;;14.30;53.40;;;;;;6302943;22;20018;-64
2023/06/24 09:11:57;;;;;;;7.57;3.95;;;14.30;53.40;;;;;;6303560;22;20433;-65
2023/06/24 09:14:27;;;;;;;6.18;3.85;;;14.30;53.50;;;;;;6301492;22;20003;-65
2023/06/24 09:17:01;;;;;;;6.43;3.60;;;14.30;53.60;;;;;;6275359;22;20023;-65
2023/06/24 09:19:29;;;;;;;6.65;4.47;;;14.30;53.60;;;;;;6276725;22;20365;-67
2023/06/24 09:21:58;;;;;;;9.20;4.88;;;14.30;53.40;;;;;;6306135;22;20003;-66
2023/06/24 09:24:30;;;;;;;19.10;7.93;;;14.20;53.60;;;;;;6278511;22;20039;-66
2023/06/24 09:27:00;;;;;;;8.18;4.65;;;14.20;53.70;;;;;;6306255;22;20003;-66
2023/06/24 09:29:28;;;;;;;4.85;3.30;;;14.20;54.10;;;;;;6307702;22;20027;-67
2023/06/24 09:31:56;;;;;;;8.52;3.03;;;14.10;53.50;;;;;;6280561;22;20334;-67
2023/06/24 09:34:24;;;;;;;4.18;2.60;;;14.10;53.80;;;;;;6307205;22;20007;-67
2023/06/24 09:36:55;;;;;;;3.05;2.40;;;14.10;53.60;;;;;;6280327;22;20015;-67
2023/06/24 09:39:28;;;;;;;4.18;2.28;;;14.10;53.90;;;;;;6307345;22;20282;-66
2023/06/24 09:42:03;;;;;;;3.70;2.20;;;14.00;53.90;;;;;;6281692;22;20007;-67
2023/06/24 09:44:30;;;;;;;3.00;2.20;;;14.00;53.60;;;;;;6281048;22;20152;-66
2023/06/24 09:46:58;;;;;;;3.33;1.90;;;14.00;53.30;;;;;;6307157;22;19999;-66
2023/06/24 09:49:25;;;;;;;4.38;2.15;;;14.00;53.20;;;;;;6307641;22;20402;-66
2023/06/24 09:52:00;;;;;;;2.30;1.70;;;14.00;53.00;;;;;;6307486;22;20090;-66
2023/06/24 09:54:28;;;;;;;3.38;1.80;;;14.00;52.80;;;;;;6307729;22;19999;-66
